sensor_id;sensor_type;location;lat;lon;timestamp;pressure;altitude;pressure_sealevel;temperature;humidity
58979;BME280;44763;50.464;30.612;2023-08-06T00:00:01;99877.75;;;24.63;87.23
58979;BME280;44763;50.464;30.612;2023-08-06T00:02:09;99872.41;;;24.59;87.31
58979;BME280;44763;50.464;30.612;2023-08-06T00:04:11;99869.77;;;24.56;87.55
58979;BME280;44763;50.464;30.612;2023-08-06T00:06:12;99870.90;;;24.54;87.61
58979;BME280;44763;50.464;30.612;2023-08-06T00:08:14;99870.81;;;24.52;87.60
58979;BME280;44763;50.464;30.612;2023-08-06T00:10:17;99867.19;;;24.54;87.54
58979;BME280;44763;50.464;30.612;2023-08-06T00:12:19;99865.02;;;24.53;87.51
58979;BME280;44763;50.464;30.612;2023-08-06T00:14:20;99866.57;;;24.50;87.48
58979;BME280;44763;50.464;30.612;2023-08-06T00:16:22;99868.02;;;24.43;87.97
58979;BME280;44763;50.464;30.612;2023-08-06T00:18:24;99862.10;;;24.41;88.14
58979;BME280;44763;50.464;30.612;2023-08-06T00:20:26;99859.64;;;24.38;88.50
58979;BME280;44763;50.464;30.612;2023-08-06T00:22:27;99857.91;;;24.36;88.63
58979;BME280;44763;50.464;30.612;2023-08-06T00:24:29;99853.75;;;24.34;88.70
58979;BME280;44763;50.464;30.612;2023-08-06T00:26:31;99860.13;;;24.28;89.04
58979;BME280;44763;50.464;30.612;2023-08-06T00:28:32;99859.45;;;24.22;89.53
58979;BME280;44763;50.464;30.612;2023-08-06T00:30:35;99860.27;;;24.18;90.09
58979;BME280;44763;50.464;30.612;2023-08-06T00:32:37;99856.77;;;24.15;90.17
58979;BME280;44763;50.464;30.612;2023-08-06T00:34:38;99854.86;;;24.09;90.50
58979;BME280;44763;50.464;30.612;2023-08-06T00:36:40;99854.28;;;24.03;91.38
58979;BME280;44763;50.464;30.612;2023-08-06T00:38:42;99853.61;;;23.99;91.51
58979;BME280;44763;50.464;30.612;2023-08-06T00:40:44;99855.38;;;23.98;91.56
58979;BME280;44763;50.464;30.612;2023-08-06T00:42:45;99855.92;;;23.99;91.38
58979;BME280;44763;50.464;30.612;2023-08-06T00:44:48;99852.83;;;24.02;91.29
58979;BME280;44763;50.464;30.612;2023-08-06T00:46:50;99854.52;;;24.02;91.31
58979;BME280;44763;50.464;30.612;2023-08-06T00:48:52;99847.98;;;24.02;91.40
58979;BME280;44763;50.464;30.612;2023-08-06T00:50:55;99845.89;;;24.04;91.29
58979;BME280;44763;50.464;30.612;2023-08-06T00:52:56;99848.62;;;24.04;91.04
58979;BME280;44763;50.464;30.612;2023-08-06T00:54:59;99846.92;;;24.04;91.03
58979;BME280;44763;50.464;30.612;2023-08-06T00:57:01;99847.36;;;24.09;90.68
58979;BME280;44763;50.464;30.612;2023-08-06T00:59:05;99843.48;;;24.10;90.45
58979;BME280;44763;50.464;30.612;2023-08-06T01:01:07;99842.30;;;24.03;90.74
58979;BME280;44763;50.464;30.612;2023-08-06T01:03:09;99840.30;;;24.01;90.91
58979;BME280;44763;50.464;30.612;2023-08-06T01:05:11;99841.84;;;23.95;91.18
58979;BME280;44763;50.464;30.612;2023-08-06T01:07:26;99845.50;;;23.89;91.64
58979;BME280;44763;50.464;30.612;2023-08-06T01:09:41;99843.16;;;23.85;91.70
58979;BME280;44763;50.464;30.612;2023-08-06T01:14:11;99841.58;;;23.77;92.28
58979;BME280;44763;50.464;30.612;2023-08-06T01:16:18;99838.44;;;23.71;92.59
58979;BME280;44763;50.464;30.612;2023-08-06T01:18:20;99842.30;;;23.66;93.12
58979;BME280;44763;50.464;30.612;2023-08-06T01:20:28;99834.66;;;23.62;93.29
58979;BME280;44763;50.464;30.612;2023-08-06T01:22:30;99834.81;;;23.57;93.77
58979;BME280;44763;50.464;30.612;2023-08-06T01:24:31;99839.58;;;23.55;94.01
58979;BME280;44763;50.464;30.612;2023-08-06T01:26:39;99831.96;;;23.54;94.03
58979;BME280;44763;50.464;30.612;2023-08-06T01:29:08;99836.42;;;23.53;94.10
58979;BME280;44763;50.464;30.612;2023-08-06T01:31:28;99833.39;;;23.52;94.24
58979;BME280;44763;50.464;30.612;2023-08-06T01:33:32;99829.84;;;23.49;94.22
58979;BME280;44763;50.464;30.612;2023-08-06T01:35:37;99831.13;;;23.45;94.69
58979;BME280;44763;50.464;30.612;2023-08-06T01:37:40;99826.63;;;23.38;95.07
58979;BME280;44763;50.464;30.612;2023-08-06T01:39:43;99831.36;;;23.31;95.63
58979;BME280;44763;50.464;30.612;2023-08-06T01:41:45;99824.65;;;23.22;96.37
58979;BME280;44763;50.464;30.612;2023-08-06T01:43:47;99826.04;;;23.18;96.77
58979;BME280;44763;50.464;30.612;2023-08-06T01:45:49;99823.67;;;23.13;97.30
58979;BME280;44763;50.464;30.612;2023-08-06T01:47:50;99823.04;;;23.12;97.47
58979;BME280;44763;50.464;30.612;2023-08-06T01:49:52;99813.48;;;23.02;97.57
58979;BME280;44763;50.464;30.612;2023-08-06T01:51:54;99817.92;;;23.06;97.72
58979;BME280;44763;50.464;30.612;2023-08-06T01:53:56;99817.71;;;23.05;97.98
58979;BME280;44763;50.464;30.612;2023-08-06T01:55:58;99812.98;;;23.03;97.78
58979;BME280;44763;50.464;30.612;2023-08-06T01:58:00;99813.59;;;23.03;97.86
58979;BME280;44763;50.464;30.612;2023-08-06T02:00:02;99810.96;;;23.03;97.92
58979;BME280;44763;50.464;30.612;2023-08-06T02:02:13;99806.94;;;23.02;97.83
58979;BME280;44763;50.464;30.612;2023-08-06T02:04:15;99809.45;;;23.01;97.90
58979;BME280;44763;50.464;30.612;2023-08-06T02:06:17;99807.87;;;23.01;97.90
58979;BME280;44763;50.464;30.612;2023-08-06T02:08:19;99808.34;;;22.97;98.20
58979;BME280;44763;50.464;30.612;2023-08-06T02:10:21;99808.69;;;22.93;98.13
58979;BME280;44763;50.464;30.612;2023-08-06T02:12:23;99808.49;;;22.90;98.41
58979;BME280;44763;50.464;30.612;2023-08-06T02:14:24;99809.23;;;22.87;98.88
58979;BME280;44763;50.464;30.612;2023-08-06T02:16:26;99805.02;;;22.84;99.09
58979;BME280;44763;50.464;30.612;2023-08-06T02:18:28;99806.39;;;22.81;99.32
58979;BME280;44763;50.464;30.612;2023-08-06T02:20:30;99804.01;;;22.81;99.61
58979;BME280;44763;50.464;30.612;2023-08-06T02:22:31;99809.83;;;22.80;99.46
58979;BME280;44763;50.464;30.612;2023-08-06T02:24:33;99811.42;;;22.83;99.38
58979;BME280;44763;50.464;30.612;2023-08-06T02:26:35;99813.27;;;22.83;99.22
58979;BME280;44763;50.464;30.612;2023-08-06T02:28:37;99813.70;;;22.83;99.20
58979;BME280;44763;50.464;30.612;2023-08-06T02:30:39;99813.02;;;22.82;99.35
58979;BME280;44763;50.464;30.612;2023-08-06T02:32:41;99811.05;;;22.83;99.20
58979;BME280;44763;50.464;30.612;2023-08-06T02:34:43;99814.65;;;22.81;99.39
58979;BME280;44763;50.464;30.612;2023-08-06T02:36:45;99814.83;;;22.79;99.63
58979;BME280;44763;50.464;30.612;2023-08-06T02:38:46;99816.41;;;22.77;99.59
58979;BME280;44763;50.464;30.612;2023-08-06T02:40:48;99816.65;;;22.83;99.35
58979;BME280;44763;50.464;30.612;2023-08-06T02:42:50;99815.48;;;22.85;98.99
58979;BME280;44763;50.464;30.612;2023-08-06T02:44:52;99813.92;;;22.84;99.00
58979;BME280;44763;50.464;30.612;2023-08-06T02:46:56;99817.72;;;22.79;99.43
58979;BME280;44763;50.464;30.612;2023-08-06T02:48:58;99816.98;;;22.82;99.22
58979;BME280;44763;50.464;30.612;2023-08-06T02:51:00;99820.80;;;22.82;99.53
58979;BME280;44763;50.464;30.612;2023-08-06T02:53:04;99819.86;;;22.81;99.57
58979;BME280;44763;50.464;30.612;2023-08-06T02:55:06;99819.92;;;22.80;99.29
58979;BME280;44763;50.464;30.612;2023-08-06T02:57:10;99819.62;;;22.78;99.41
58979;BME280;44763;50.464;30.612;2023-08-06T02:59:13;99823.11;;;22.84;98.97
58979;BME280;44763;50.464;30.612;2023-08-06T03:01:39;99823.33;;;22.91;98.70
58979;BME280;44763;50.464;30.612;2023-08-06T03:03:47;99821.03;;;23.00;98.34
58979;BME280;44763;50.464;30.612;2023-08-06T03:05:54;99818.52;;;23.18;96.80
58979;BME280;44763;50.464;30.612;2023-08-06T03:08:05;99815.02;;;23.29;95.79
58979;BME280;44763;50.464;30.612;2023-08-06T03:10:08;99813.52;;;23.43;94.99
58979;BME280;44763;50.464;30.612;2023-08-06T03:12:10;99816.01;;;23.56;94.03
58979;BME280;44763;50.464;30.612;2023-08-06T03:14:14;99813.08;;;23.72;92.62
58979;BME280;44763;50.464;30.612;2023-08-06T03:16:17;99810.61;;;23.94;91.06
58979;BME280;44763;50.464;30.612;2023-08-06T03:18:23;99807.27;;;24.19;89.53
58979;BME280;44763;50.464;30.612;2023-08-06T03:20:25;99808.77;;;24.37;87.50
58979;BME280;44763;50.464;30.612;2023-08-06T03:22:27;99804.63;;;24.54;86.65
58979;BME280;44763;50.464;30.612;2023-08-06T03:24:28;99800.02;;;24.76;85.29
58979;BME280;44763;50.464;30.612;2023-08-06T03:26:30;99801.38;;;25.00;83.33
58979;BME280;44763;50.464;30.612;2023-08-06T03:28:32;99802.56;;;25.21;81.94
58979;BME280;44763;50.464;30.612;2023-08-06T03:30:35;99800.30;;;25.42;80.01
58979;BME280;44763;50.464;30.612;2023-08-06T03:32:37;99800.15;;;25.60;78.42
58979;BME280;44763;50.464;30.612;2023-08-06T03:34:39;99796.98;;;25.69;78.26
58979;BME280;44763;50.464;30.612;2023-08-06T03:36:41;99799.41;;;25.81;77.45
58979;BME280;44763;50.464;30.612;2023-08-06T03:38:43;99800.70;;;26.01;77.35
58979;BME280;44763;50.464;30.612;2023-08-06T03:40:46;99795.05;;;26.27;75.83
58979;BME280;44763;50.464;30.612;2023-08-06T03:42:48;99801.11;;;26.58;74.65
58979;BME280;44763;50.464;30.612;2023-08-06T03:44:52;99795.17;;;26.92;72.95
58979;BME280;44763;50.464;30.612;2023-08-06T03:46:54;99799.09;;;27.22;71.09
58979;BME280;44763;50.464;30.612;2023-08-06T03:48:56;99795.50;;;27.47;69.19
58979;BME280;44763;50.464;30.612;2023-08-06T03:50:59;99794.42;;;27.71;67.79
58979;BME280;44763;50.464;30.612;2023-08-06T03:53:03;99790.02;;;27.98;66.40
58979;BME280;44763;50.464;30.612;2023-08-06T03:55:05;99789.25;;;28.15;65.09
58979;BME280;44763;50.464;30.612;2023-08-06T03:57:07;99789.73;;;28.17;64.10
58979;BME280;44763;50.464;30.612;2023-08-06T03:59:10;99786.48;;;28.16;64.70
58979;BME280;44763;50.464;30.612;2023-08-06T04:01:12;99778.90;;;28.33;64.03
58979;BME280;44763;50.464;30.612;2023-08-06T04:03:17;99780.64;;;28.59;63.30
58979;BME280;44763;50.464;30.612;2023-08-06T04:05:19;99777.39;;;28.89;61.88
58979;BME280;44763;50.464;30.612;2023-08-06T04:07:21;99774.02;;;29.20;60.63
58979;BME280;44763;50.464;30.612;2023-08-06T04:09:23;99771.66;;;29.47;59.55
58979;BME280;44763;50.464;30.612;2023-08-06T04:11:24;99774.65;;;29.68;58.74
58979;BME280;44763;50.464;30.612;2023-08-06T04:13:26;99775.52;;;29.88;57.19
58979;BME280;44763;50.464;30.612;2023-08-06T04:15:28;99775.36;;;30.03;56.65
58979;BME280;44763;50.464;30.612;2023-08-06T04:17:31;99770.52;;;30.14;56.31
58979;BME280;44763;50.464;30.612;2023-08-06T04:19:33;99769.23;;;30.30;56.01
58979;BME280;44763;50.464;30.612;2023-08-06T04:21:35;99765.98;;;30.56;55.34
58979;BME280;44763;50.464;30.612;2023-08-06T04:23:38;99766.66;;;30.85;54.07
58979;BME280;44763;50.464;30.612;2023-08-06T04:25:41;99763.95;;;30.95;52.68
58979;BME280;44763;50.464;30.612;2023-08-06T04:27:43;99763.84;;;30.88;52.57
58979;BME280;44763;50.464;30.612;2023-08-06T04:29:45;99760.27;;;30.85;53.13
58979;BME280;44763;50.464;30.612;2023-08-06T04:31:47;99756.64;;;30.97;52.94
58979;BME280;44763;50.464;30.612;2023-08-06T04:33:49;99748.56;;;31.09;52.16
58979;BME280;44763;50.464;30.612;2023-08-06T04:35:54;99751.44;;;31.06;51.95
58979;BME280;44763;50.464;30.612;2023-08-06T04:37:57;99750.35;;;31.02;52.42
58979;BME280;44763;50.464;30.612;2023-08-06T04:40:00;99751.86;;;31.11;52.24
58979;BME280;44763;50.464;30.612;2023-08-06T04:42:02;99747.48;;;31.35;51.20
58979;BME280;44763;50.464;30.612;2023-08-06T04:44:04;99747.97;;;31.60;50.37
58979;BME280;44763;50.464;30.612;2023-08-06T04:46:06;99743.23;;;31.76;49.66
58979;BME280;44763;50.464;30.612;2023-08-06T04:48:08;99740.23;;;31.89;49.30
58979;BME280;44763;50.464;30.612;2023-08-06T04:50:09;99735.36;;;32.02;48.81
58979;BME280;44763;50.464;30.612;2023-08-06T04:52:11;99735.75;;;32.20;48.40
58979;BME280;44763;50.464;30.612;2023-08-06T04:54:13;99732.63;;;32.29;47.30
58979;BME280;44763;50.464;30.612;2023-08-06T04:56:15;99735.27;;;32.20;47.76
58979;BME280;44763;50.464;30.612;2023-08-06T04:58:17;99726.61;;;32.22;48.00
58979;BME280;44763;50.464;30.612;2023-08-06T05:00:19;99726.64;;;32.37;47.59
58979;BME280;44763;50.464;30.612;2023-08-06T05:02:20;99720.42;;;32.31;46.81
58979;BME280;44763;50.464;30.612;2023-08-06T05:04:22;99712.69;;;32.28;47.44
58979;BME280;44763;50.464;30.612;2023-08-06T05:06:26;99715.21;;;32.31;47.57
58979;BME280;44763;50.464;30.612;2023-08-06T05:08:28;99711.38;;;32.52;47.08
58979;BME280;44763;50.464;30.612;2023-08-06T05:10:29;99713.54;;;32.72;46.39
58979;BME280;44763;50.464;30.612;2023-08-06T05:12:31;99707.62;;;32.93;45.44
58979;BME280;44763;50.464;30.612;2023-08-06T05:14:33;99702.02;;;32.99;45.38
58979;BME280;44763;50.464;30.612;2023-08-06T05:16:34;99702.14;;;32.88;45.64
58979;BME280;44763;50.464;30.612;2023-08-06T05:18:36;99701.20;;;32.92;45.85
58979;BME280;44763;50.464;30.612;2023-08-06T05:20:41;99698.38;;;33.14;45.68
58979;BME280;44763;50.464;30.612;2023-08-06T05:22:43;99702.13;;;33.24;45.27
58979;BME280;44763;50.464;30.612;2023-08-06T05:24:45;99697.11;;;33.26;45.14
58979;BME280;44763;50.464;30.612;2023-08-06T05:26:47;99694.20;;;33.32;44.76
58979;BME280;44763;50.464;30.612;2023-08-06T05:28:49;99691.70;;;33.40;44.18
58979;BME280;44763;50.464;30.612;2023-08-06T05:30:51;99689.30;;;33.35;44.57
58979;BME280;44763;50.464;30.612;2023-08-06T05:32:52;99689.21;;;33.46;45.25
58979;BME280;44763;50.464;30.612;2023-08-06T05:34:55;99683.13;;;33.62;44.49
58979;BME280;44763;50.464;30.612;2023-08-06T05:36:57;99684.23;;;33.64;44.50
58979;BME280;44763;50.464;30.612;2023-08-06T05:38:59;99682.69;;;33.65;44.65
58979;BME280;44763;50.464;30.612;2023-08-06T05:41:01;99679.32;;;33.74;44.56
58979;BME280;44763;50.464;30.612;2023-08-06T05:43:03;99680.29;;;33.86;44.06
58979;BME280;44763;50.464;30.612;2023-08-06T05:45:05;99674.55;;;33.86;43.69
58979;BME280;44763;50.464;30.612;2023-08-06T05:47:07;99671.98;;;33.82;43.50
58979;BME280;44763;50.464;30.612;2023-08-06T05:49:09;99669.14;;;33.85;43.35
58979;BME280;44763;50.464;30.612;2023-08-06T05:51:11;99667.98;;;33.87;43.65
58979;BME280;44763;50.464;30.612;2023-08-06T05:53:14;99660.74;;;33.92;43.64
58979;BME280;44763;50.464;30.612;2023-08-06T05:55:16;99664.11;;;34.01;42.95
58979;BME280;44763;50.464;30.612;2023-08-06T05:57:18;99660.83;;;34.11;42.43
58979;BME280;44763;50.464;30.612;2023-08-06T05:59:19;99649.30;;;34.11;41.81
58979;BME280;44763;50.464;30.612;2023-08-06T06:01:21;99651.38;;;34.08;42.09
58979;BME280;44763;50.464;30.612;2023-08-06T06:03:23;99646.33;;;34.16;42.13
58979;BME280;44763;50.464;30.612;2023-08-06T06:05:25;99642.22;;;34.35;41.55
58979;BME280;44763;50.464;30.612;2023-08-06T06:07:27;99642.51;;;34.51;40.41
58979;BME280;44763;50.464;30.612;2023-08-06T06:09:30;99648.09;;;34.62;39.90
58979;BME280;44763;50.464;30.612;2023-08-06T06:11:31;99635.47;;;34.64;39.26
58979;BME280;44763;50.464;30.612;2023-08-06T06:13:33;99649.29;;;34.59;39.37
58979;BME280;44763;50.464;30.612;2023-08-06T06:15:35;99626.61;;;34.51;39.47
58979;BME280;44763;50.464;30.612;2023-08-06T06:17:39;99631.80;;;34.54;39.58
58979;BME280;44763;50.464;30.612;2023-08-06T06:19:41;99640.84;;;34.50;39.35
58979;BME280;44763;50.464;30.612;2023-08-06T06:21:43;99629.31;;;34.39;39.81
58979;BME280;44763;50.464;30.612;2023-08-06T06:23:45;99627.02;;;34.34;40.07
58979;BME280;44763;50.464;30.612;2023-08-06T06:25:48;99619.04;;;34.30;40.68
58979;BME280;44763;50.464;30.612;2023-08-06T06:27:50;99632.45;;;34.21;40.31
58979;BME280;44763;50.464;30.612;2023-08-06T06:29:53;99650.39;;;34.03;40.12
58979;BME280;44763;50.464;30.612;2023-08-06T06:31:56;99619.92;;;33.81;40.47
58979;BME280;44763;50.464;30.612;2023-08-06T06:33:57;99616.05;;;33.66;41.18
58979;BME280;44763;50.464;30.612;2023-08-06T06:36:00;99620.00;;;33.46;41.91
58979;BME280;44763;50.464;30.612;2023-08-06T06:38:01;99618.77;;;33.19;42.45
58979;BME280;44763;50.464;30.612;2023-08-06T06:40:04;99604.74;;;32.91;43.20
58979;BME280;44763;50.464;30.612;2023-08-06T06:42:06;99615.98;;;32.84;43.65
58979;BME280;44763;50.464;30.612;2023-08-06T06:44:10;99604.86;;;32.96;42.78
58979;BME280;44763;50.464;30.612;2023-08-06T06:46:12;99596.70;;;33.07;42.60
58979;BME280;44763;50.464;30.612;2023-08-06T06:48:14;99599.79;;;33.05;42.99
58979;BME280;44763;50.464;30.612;2023-08-06T06:50:16;99605.59;;;33.03;43.02
58979;BME280;44763;50.464;30.612;2023-08-06T06:52:18;99582.37;;;33.11;42.97
58979;BME280;44763;50.464;30.612;2023-08-06T06:54:20;99594.35;;;33.28;42.83
58979;BME280;44763;50.464;30.612;2023-08-06T06:56:22;99594.30;;;33.50;42.15
58979;BME280;44763;50.464;30.612;2023-08-06T06:58:24;99580.39;;;33.64;41.73
58979;BME280;44763;50.464;30.612;2023-08-06T07:00:26;99581.66;;;33.67;41.93
58979;BME280;44763;50.464;30.612;2023-08-06T07:02:27;99571.44;;;33.62;42.05
58979;BME280;44763;50.464;30.612;2023-08-06T07:04:29;99570.34;;;33.55;42.58
58979;BME280;44763;50.464;30.612;2023-08-06T07:06:31;99561.73;;;33.59;42.33
58979;BME280;44763;50.464;30.612;2023-08-06T07:08:34;99558.88;;;33.76;41.96
58979;BME280;44763;50.464;30.612;2023-08-06T07:10:37;99545.17;;;33.87;41.79
58979;BME280;44763;50.464;30.612;2023-08-06T07:12:43;99557.09;;;33.70;41.44
58979;BME280;44763;50.464;30.612;2023-08-06T07:14:46;99562.11;;;33.47;41.96
58979;BME280;44763;50.464;30.612;2023-08-06T07:16:48;99559.21;;;33.41;42.23
58979;BME280;44763;50.464;30.612;2023-08-06T07:18:51;99559.61;;;33.41;42.18
58979;BME280;44763;50.464;30.612;2023-08-06T07:20:54;99553.48;;;33.31;42.10
58979;BME280;44763;50.464;30.612;2023-08-06T07:22:58;99543.38;;;33.27;42.32
58979;BME280;44763;50.464;30.612;2023-08-06T07:24:59;99552.81;;;33.29;42.55
58979;BME280;44763;50.464;30.612;2023-08-06T07:27:01;99554.65;;;33.27;42.24
58979;BME280;44763;50.464;30.612;2023-08-06T07:29:03;99548.97;;;33.04;42.69
58979;BME280;44763;50.464;30.612;2023-08-06T07:31:05;99544.20;;;32.75;42.93
58979;BME280;44763;50.464;30.612;2023-08-06T07:33:10;99535.26;;;32.52;43.83
58979;BME280;44763;50.464;30.612;2023-08-06T07:35:12;99545.00;;;32.36;44.30
58979;BME280;44763;50.464;30.612;2023-08-06T07:37:16;99529.95;;;32.09;44.90
58979;BME280;44763;50.464;30.612;2023-08-06T07:39:18;99523.10;;;31.89;45.27
58979;BME280;44763;50.464;30.612;2023-08-06T07:41:20;99521.94;;;31.78;45.87
58979;BME280;44763;50.464;30.612;2023-08-06T07:43:21;99542.40;;;31.78;45.93
58979;BME280;44763;50.464;30.612;2023-08-06T07:45:24;99542.18;;;31.73;45.95
58979;BME280;44763;50.464;30.612;2023-08-06T07:47:25;99548.02;;;31.68;45.75
58979;BME280;44763;50.464;30.612;2023-08-06T07:49:27;99541.78;;;31.62;45.64
58979;BME280;44763;50.464;30.612;2023-08-06T07:51:31;99536.45;;;31.54;45.76
58979;BME280;44763;50.464;30.612;2023-08-06T07:53:33;99533.67;;;31.46;46.00
58979;BME280;44763;50.464;30.612;2023-08-06T07:55:35;99537.58;;;31.35;46.17
58979;BME280;44763;50.464;30.612;2023-08-06T07:57:37;99517.58;;;31.26;46.45
58979;BME280;44763;50.464;30.612;2023-08-06T07:59:39;99504.36;;;31.23;46.72
58979;BME280;44763;50.464;30.612;2023-08-06T08:01:41;99500.88;;;31.25;47.02
58979;BME280;44763;50.464;30.612;2023-08-06T08:03:43;99512.70;;;31.23;46.98
58979;BME280;44763;50.464;30.612;2023-08-06T08:05:45;99500.07;;;31.21;47.03
58979;BME280;44763;50.464;30.612;2023-08-06T08:07:47;99493.88;;;31.25;47.33
58979;BME280;44763;50.464;30.612;2023-08-06T08:09:49;99498.13;;;31.34;47.44
58979;BME280;44763;50.464;30.612;2023-08-06T08:11:51;99487.79;;;31.40;47.47
58979;BME280;44763;50.464;30.612;2023-08-06T08:13:54;99496.59;;;31.42;47.53
58979;BME280;44763;50.464;30.612;2023-08-06T08:15:57;99525.35;;;31.44;47.12
58979;BME280;44763;50.464;30.612;2023-08-06T08:17:59;99502.83;;;31.41;46.38
58979;BME280;44763;50.464;30.612;2023-08-06T08:20:02;99482.14;;;31.44;47.11
58979;BME280;44763;50.464;30.612;2023-08-06T08:22:04;99491.77;;;31.42;47.70
58979;BME280;44763;50.464;30.612;2023-08-06T08:24:06;99486.77;;;31.47;47.90
58979;BME280;44763;50.464;30.612;2023-08-06T08:26:08;99492.75;;;31.51;47.90
58979;BME280;44763;50.464;30.612;2023-08-06T08:28:10;99465.48;;;31.54;47.89
58979;BME280;44763;50.464;30.612;2023-08-06T08:30:12;99481.85;;;31.57;47.57
58979;BME280;44763;50.464;30.612;2023-08-06T08:32:14;99485.45;;;31.63;46.62
58979;BME280;44763;50.464;30.612;2023-08-06T08:34:17;99487.83;;;31.64;46.35
58979;BME280;44763;50.464;30.612;2023-08-06T08:36:19;99480.09;;;31.62;46.64
58979;BME280;44763;50.464;30.612;2023-08-06T08:38:22;99461.50;;;31.61;46.98
58979;BME280;44763;50.464;30.612;2023-08-06T08:40:31;99465.45;;;31.62;47.29
58979;BME280;44763;50.464;30.612;2023-08-06T08:42:35;99456.39;;;31.67;48.02
58979;BME280;44763;50.464;30.612;2023-08-06T08:44:38;99457.18;;;31.71;48.49
58979;BME280;44763;50.464;30.612;2023-08-06T08:46:41;99472.49;;;31.81;47.87
58979;BME280;44763;50.464;30.612;2023-08-06T08:48:44;99463.35;;;31.89;47.75
58979;BME280;44763;50.464;30.612;2023-08-06T08:50:47;99467.98;;;31.92;47.85
58979;BME280;44763;50.464;30.612;2023-08-06T08:52:50;99471.70;;;31.95;47.25
58979;BME280;44763;50.464;30.612;2023-08-06T08:54:54;99471.72;;;31.93;47.67
58979;BME280;44763;50.464;30.612;2023-08-06T08:56:56;99462.28;;;31.88;47.83
58979;BME280;44763;50.464;30.612;2023-08-06T08:58:58;99461.34;;;31.88;48.24
58979;BME280;44763;50.464;30.612;2023-08-06T09:01:02;99454.91;;;31.92;48.03
58979;BME280;44763;50.464;30.612;2023-08-06T09:03:06;99477.27;;;31.92;47.92
58979;BME280;44763;50.464;30.612;2023-08-06T09:05:09;99450.67;;;31.93;47.45
58979;BME280;44763;50.464;30.612;2023-08-06T09:07:17;99451.45;;;31.92;47.71
58979;BME280;44763;50.464;30.612;2023-08-06T09:09:26;99451.63;;;31.90;47.81
58979;BME280;44763;50.464;30.612;2023-08-06T09:11:32;99432.25;;;31.89;48.06
58979;BME280;44763;50.464;30.612;2023-08-06T09:13:41;99434.28;;;31.94;48.47
58979;BME280;44763;50.464;30.612;2023-08-06T09:15:43;99445.21;;;31.97;48.73
58979;BME280;44763;50.464;30.612;2023-08-06T09:17:46;99437.88;;;31.99;48.64
58979;BME280;44763;50.464;30.612;2023-08-06T09:19:47;99440.16;;;32.02;48.49
58979;BME280;44763;50.464;30.612;2023-08-06T09:21:51;99452.31;;;32.01;47.67
58979;BME280;44763;50.464;30.612;2023-08-06T09:23:54;99432.11;;;32.01;47.56
58979;BME280;44763;50.464;30.612;2023-08-06T09:25:56;99432.69;;;31.99;47.95
58979;BME280;44763;50.464;30.612;2023-08-06T09:27:58;99421.87;;;31.99;46.96
58979;BME280;44763;50.464;30.612;2023-08-06T09:30:01;99425.56;;;32.01;47.34
58979;BME280;44763;50.464;30.612;2023-08-06T09:32:03;99426.89;;;32.04;47.43
58979;BME280;44763;50.464;30.612;2023-08-06T09:34:11;99420.13;;;32.07;47.35
58979;BME280;44763;50.464;30.612;2023-08-06T09:36:14;99408.23;;;32.10;47.35
58979;BME280;44763;50.464;30.612;2023-08-06T09:38:16;99417.80;;;32.14;46.94
58979;BME280;44763;50.464;30.612;2023-08-06T09:40:30;99425.80;;;32.20;46.62
58979;BME280;44763;50.464;30.612;2023-08-06T09:42:36;99416.59;;;32.23;46.78
58979;BME280;44763;50.464;30.612;2023-08-06T09:44:40;99399.52;;;32.24;47.04
58979;BME280;44763;50.464;30.612;2023-08-06T09:46:42;99394.79;;;32.27;47.37
58979;BME280;44763;50.464;30.612;2023-08-06T09:48:47;99401.54;;;32.33;47.11
58979;BME280;44763;50.464;30.612;2023-08-06T09:50:50;99403.81;;;32.39;47.03
58979;BME280;44763;50.464;30.612;2023-08-06T09:52:54;99363.87;;;32.43;45.95
58979;BME280;44763;50.464;30.612;2023-08-06T09:54:56;99391.19;;;32.48;46.56
58979;BME280;44763;50.464;30.612;2023-08-06T09:57:00;99381.11;;;32.55;46.20
58979;BME280;44763;50.464;30.612;2023-08-06T09:59:04;99381.23;;;32.60;44.74
58979;BME280;44763;50.464;30.612;2023-08-06T10:01:07;99360.55;;;32.65;44.00
58979;BME280;44763;50.464;30.612;2023-08-06T10:03:10;99372.84;;;32.68;44.22
58979;BME280;44763;50.464;30.612;2023-08-06T10:05:12;99357.95;;;32.76;44.17
58979;BME280;44763;50.464;30.612;2023-08-06T10:07:14;99362.73;;;32.84;44.95
58979;BME280;44763;50.464;30.612;2023-08-06T10:09:18;99370.45;;;32.90;43.94
58979;BME280;44763;50.464;30.612;2023-08-06T10:13:06;99364.48;;;32.99;44.87
58979;BME280;44763;50.464;30.612;2023-08-06T10:15:13;99371.23;;;33.01;45.11
58979;BME280;44763;50.464;30.612;2023-08-06T10:17:17;99355.93;;;33.05;45.23
58979;BME280;44763;50.464;30.612;2023-08-06T10:19:19;99348.48;;;33.08;45.52
58979;BME280;44763;50.464;30.612;2023-08-06T10:21:24;99344.39;;;33.14;45.63
58979;BME280;44763;50.464;30.612;2023-08-06T10:23:36;99368.52;;;33.23;44.69
58979;BME280;44763;50.464;30.612;2023-08-06T10:25:42;99328.95;;;33.20;44.63
58979;BME280;44763;50.464;30.612;2023-08-06T10:29:49;99341.93;;;33.18;43.85
58979;BME280;44763;50.464;30.612;2023-08-06T10:32:10;99332.39;;;33.23;44.43
58979;BME280;44763;50.464;30.612;2023-08-06T10:34:16;99340.41;;;33.21;44.92
58979;BME280;44763;50.464;30.612;2023-08-06T10:36:18;99329.77;;;33.26;44.89
58979;BME280;44763;50.464;30.612;2023-08-06T10:38:21;99345.15;;;33.29;44.50
58979;BME280;44763;50.464;30.612;2023-08-06T10:40:24;99333.44;;;33.31;43.44
58979;BME280;44763;50.464;30.612;2023-08-06T10:42:29;99346.18;;;33.34;42.83
58979;BME280;44763;50.464;30.612;2023-08-06T10:44:31;99327.94;;;33.37;42.87
58979;BME280;44763;50.464;30.612;2023-08-06T10:46:33;99337.28;;;33.40;42.98
58979;BME280;44763;50.464;30.612;2023-08-06T10:50:40;99308.91;;;33.42;42.33